Liberty Promise — WWMZ — position and weather

sailwx.info

Track history (hours):
 
Tides and Currents Weather Stations Pressure Air Temp Water Temp Dewpoint Dewpoint Depression Visibility Wind Speed Wind Dir Waves Ship Positions

Liberty Promise

Owner: LIBERTY PROMISE CORPORATION, LAKE SUCCESS, NY. More information available from US FCC via Universal Licensing System and Coast Guard Vessel Documentation Center.

Last reported at 2015-Jul-04 10:19 UTC. Time now 2015-Jul-07 04:37 UTC.
Position N 38°25' W 074°41'.

Length 200 m; draft 9.2 m.

Type: Cargo ship. MMSI: 366102000.

Date/timePositionNaut miles runAvg speedWind from/ knotsBaromVisibWave heightAir tempDewpointWater temp
2015-Jul-04 10:19N 38°25' W 074°41'1013.2
2015-Jul-04 09:34N 38°32' W 074°49'1515.2
2015-Jul-04 08:34N 38°45' W 075°00'1514.8
2015-Jul-04 07:34N 38°59' W 075°08'1615.7
2015-Jul-04 06:34N 39°12' W 075°17'1414.2
2015-Jul-04 05:33N 39°23' W 075°29'1111.2
2015-Jul-04 04:33N 39°34' W 075°33'9 8.5
2015-Jul-04 03:33N 39°43' W 075°31'0 0.0
2015-Jul-04 02:31N 39°43' W 075°31'0 0.0
2015-Jul-04 01:31N 39°43' W 075°31'0 0.0
2015-Jul-04 00:31N 39°43' W 075°31'0 0.0
2015-Jul-03 23:31N 39°43' W 075°31'0 0.0
2015-Jul-03 22:31N 39°43' W 075°31'0 0.0
2015-Jul-03 21:31N 39°43' W 075°31'0 0.0
2015-Jul-03 20:31N 39°43' W 075°31'0 0.0
2015-Jul-03 19:31N 39°43' W 075°31'0 0.0
2015-Jul-03 18:31N 39°43' W 075°31'0 0.0
2015-Jul-03 17:31N 39°43' W 075°31'0 0.0
2015-Jul-03 16:31N 39°43' W 075°31'0 0.0
2015-Jul-03 15:31N 39°43' W 075°31'0 0.0
2015-Jul-03 14:31N 39°43' W 075°31'0 0.0
2015-Jul-03 13:31N 39°43' W 075°31'0 0.0
2015-Jul-03 12:31N 39°43' W 075°31'0 0.0
2015-Jul-03 11:31N 39°43' W 075°31'0 0.0
2015-Jul-03 10:31N 39°43' W 075°31'0 0.0
2015-Jul-03 09:31N 39°43' W 075°31'0 0.0
2015-Jul-03 08:31N 39°43' W 075°31'3 3.4
2015-Jul-03 07:33N 39°45' W 075°29'9 9.4
2015-Jul-03 06:33N 39°51' W 075°19'9 8.6
2015-Jul-03 05:33N 39°53' W 075°08'1 0.9
2015-Jul-03 04:32N 39°54' W 075°08'0 0.0
2015-Jul-03 03:32N 39°54' W 075°08'0 0.0
2015-Jul-03 02:32N 39°54' W 075°08'0 0.0
2015-Jul-03 01:32N 39°54' W 075°08'0 0.0
2015-Jul-03 00:32N 39°54' W 075°08'0 0.0
2015-Jul-02 23:32N 39°54' W 075°08'0 0.0
2015-Jul-02 22:32N 39°54' W 075°08'0 0.0
2015-Jul-02 21:32N 39°54' W 075°08'0 0.0
2015-Jul-02 20:32N 39°54' W 075°08'0 0.0
2015-Jul-02 19:33N 39°54' W 075°08'4 3.8
2015-Jul-02 18:33N 39°52' W 075°12'1212.4
2015-Jul-02 17:33N 39°47' W 075°27'1313.2
2015-Jul-02 16:33N 39°35' W 075°34'1414.4
2015-Jul-02 15:33N 39°22' W 075°27'1615.6
2015-Jul-02 14:33N 39°09' W 075°15'1515.0
2015-Jul-02 13:34N 38°56' W 075°06'1211.7
2015-Jul-02 12:33N 38°45' W 074°59'1211.7
2015-Jul-02 11:34N 38°37' W 074°49'1413.8
2015-Jul-02 10:33N 38°25' W 074°39'50310.1
2015-Jun-30 08:33N 31°27' W 080°20'  
2015-Jun-27 05:30N 27°04' W 079°53'1819.2
2015-Jun-27 04:33N 26°46' W 079°54'1818.5
2015-Jun-27 03:33N 26°27' W 079°54'1818.4
2015-Jun-27 02:33N 26°09' W 079°55'1918.8
2015-Jun-27 01:33N 25°50' W 079°56'  
Track history (hours):
 
Tides and Currents Weather Stations Pressure Air Temp Water Temp Dewpoint Dewpoint Depression Visibility Wind Speed Wind Dir Waves Ship Positions

Liberty Promise

Owner: LIBERTY PROMISE CORPORATION, LAKE SUCCESS, NY. More information available from US FCC via Universal Licensing System and Coast Guard Vessel Documentation Center.

Last reported at 2015-Jul-04 10:19 UTC. Time now 2015-Jul-07 04:37 UTC.
Position N 38°25' W 074°41'.

Length 200 m; draft 9.2 m.

Type: Cargo ship. MMSI: 366102000.

Date/timePositionNaut miles runAvg speedWind from/ knotsBaromVisibWave heightAir tempDewpointWater temp
2015-Jul-04 10:19N 38°25' W 074°41'1013.2
2015-Jul-04 09:34N 38°32' W 074°49'1515.2
2015-Jul-04 08:34N 38°45' W 075°00'1514.8
2015-Jul-04 07:34N 38°59' W 075°08'1615.7
2015-Jul-04 06:34N 39°12' W 075°17'1414.2
2015-Jul-04 05:33N 39°23' W 075°29'1111.2
2015-Jul-04 04:33N 39°34' W 075°33'9 8.5
2015-Jul-04 03:33N 39°43' W 075°31'0 0.0
2015-Jul-04 02:31N 39°43' W 075°31'0 0.0
2015-Jul-04 01:31N 39°43' W 075°31'0 0.0
2015-Jul-04 00:31N 39°43' W 075°31'0 0.0
2015-Jul-03 23:31N 39°43' W 075°31'0 0.0
2015-Jul-03 22:31N 39°43' W 075°31'0 0.0
2015-Jul-03 21:31N 39°43' W 075°31'0 0.0
2015-Jul-03 20:31N 39°43' W 075°31'0 0.0
2015-Jul-03 19:31N 39°43' W 075°31'0 0.0
2015-Jul-03 18:31N 39°43' W 075°31'0 0.0
2015-Jul-03 17:31N 39°43' W 075°31'0 0.0
2015-Jul-03 16:31N 39°43' W 075°31'0 0.0
2015-Jul-03 15:31N 39°43' W 075°31'0 0.0
2015-Jul-03 14:31N 39°43' W 075°31'0 0.0
2015-Jul-03 13:31N 39°43' W 075°31'0 0.0
2015-Jul-03 12:31N 39°43' W 075°31'0 0.0
2015-Jul-03 11:31N 39°43' W 075°31'0 0.0
2015-Jul-03 10:31N 39°43' W 075°31'0 0.0
2015-Jul-03 09:31N 39°43' W 075°31'0 0.0
2015-Jul-03 08:31N 39°43' W 075°31'3 3.4
2015-Jul-03 07:33N 39°45' W 075°29'9 9.4
2015-Jul-03 06:33N 39°51' W 075°19'9 8.6
2015-Jul-03 05:33N 39°53' W 075°08'1 0.9
2015-Jul-03 04:32N 39°54' W 075°08'0 0.0
2015-Jul-03 03:32N 39°54' W 075°08'0 0.0
2015-Jul-03 02:32N 39°54' W 075°08'0 0.0
2015-Jul-03 01:32N 39°54' W 075°08'0 0.0
2015-Jul-03 00:32N 39°54' W 075°08'0 0.0
2015-Jul-02 23:32N 39°54' W 075°08'0 0.0
2015-Jul-02 22:32N 39°54' W 075°08'0 0.0
2015-Jul-02 21:32N 39°54' W 075°08'0 0.0
2015-Jul-02 20:32N 39°54' W 075°08'0 0.0
2015-Jul-02 19:33N 39°54' W 075°08'4 3.8
2015-Jul-02 18:33N 39°52' W 075°12'1212.4
2015-Jul-02 17:33N 39°47' W 075°27'1313.2
2015-Jul-02 16:33N 39°35' W 075°34'1414.4
2015-Jul-02 15:33N 39°22' W 075°27'1615.6
2015-Jul-02 14:33N 39°09' W 075°15'1515.0
2015-Jul-02 13:34N 38°56' W 075°06'1211.7
2015-Jul-02 12:33N 38°45' W 074°59'1211.7
2015-Jul-02 11:34N 38°37' W 074°49'1413.8
2015-Jul-02 10:33N 38°25' W 074°39'50310.1
2015-Jun-30 08:33N 31°27' W 080°20'  
2015-Jun-27 05:30N 27°04' W 079°53'1819.2
2015-Jun-27 04:33N 26°46' W 079°54'1818.5
2015-Jun-27 03:33N 26°27' W 079°54'1818.4
2015-Jun-27 02:33N 26°09' W 079°55'1918.8
2015-Jun-27 01:33N 25°50' W 079°56'  

Dump ship's entire track history